sensor_id;sensor_type;location;lat;lon;timestamp;pressure;altitude;pressure_sealevel;temperature;humidity
10992;BME280;5549;47.028;15.514;2023-01-25T00:01:16;97958.16;;;5.91;78.87
10992;BME280;5549;47.028;15.514;2023-01-25T00:03:44;97958.88;;;5.95;78.97
10992;BME280;5549;47.028;15.514;2023-01-25T00:06:11;97955.47;;;5.93;78.94
10992;BME280;5549;47.028;15.514;2023-01-25T00:08:39;97957.09;;;5.95;78.20
10992;BME280;5549;47.028;15.514;2023-01-25T00:11:09;97958.03;;;5.94;77.75
10992;BME280;5549;47.028;15.514;2023-01-25T00:13:37;97956.31;;;5.93;78.39
10992;BME280;5549;47.028;15.514;2023-01-25T00:16:08;97956.56;;;5.87;77.78
10992;BME280;5549;47.028;15.514;2023-01-25T00:18:35;97947.94;;;5.85;77.97
10992;BME280;5549;47.028;15.514;2023-01-25T00:21:12;97963.84;;;5.79;77.87
10992;BME280;5549;47.028;15.514;2023-01-25T00:23:42;97959.50;;;5.79;77.87
10992;BME280;5549;47.028;15.514;2023-01-25T00:26:09;97962.81;;;5.83;78.18
10992;BME280;5549;47.028;15.514;2023-01-25T00:28:41;97961.00;;;5.85;77.36
10992;BME280;5549;47.028;15.514;2023-01-25T00:31:21;97962.16;;;5.78;77.73
10992;BME280;5549;47.028;15.514;2023-01-25T00:34:06;97953.63;;;5.74;78.01
10992;BME280;5549;47.028;15.514;2023-01-25T00:36:40;97955.38;;;5.74;77.87
10992;BME280;5549;47.028;15.514;2023-01-25T00:39:12;97962.28;;;5.75;78.35
10992;BME280;5549;47.028;15.514;2023-01-25T00:41:39;97960.72;;;5.71;77.77
10992;BME280;5549;47.028;15.514;2023-01-25T00:44:09;97958.38;;;5.65;78.01
10992;BME280;5549;47.028;15.514;2023-01-25T00:46:36;97955.72;;;5.66;78.10
10992;BME280;5549;47.028;15.514;2023-01-25T00:49:04;97962.69;;;5.66;78.78
10992;BME280;5549;47.028;15.514;2023-01-25T00:51:32;97955.00;;;5.63;78.72
10992;BME280;5549;47.028;15.514;2023-01-25T00:53:59;97961.00;;;5.65;78.44
10992;BME280;5549;47.028;15.514;2023-01-25T00:56:27;97955.78;;;5.65;78.18
10992;BME280;5549;47.028;15.514;2023-01-25T00:58:56;97965.41;;;5.63;78.70
10992;BME280;5549;47.028;15.514;2023-01-25T01:01:25;97967.63;;;5.52;77.99
10992;BME280;5549;47.028;15.514;2023-01-25T01:03:56;97974.78;;;5.46;78.76
10992;BME280;5549;47.028;15.514;2023-01-25T01:06:24;97967.75;;;5.48;78.68
10992;BME280;5549;47.028;15.514;2023-01-25T01:08:54;97971.19;;;5.49;78.94
10992;BME280;5549;47.028;15.514;2023-01-25T01:11:25;97971.06;;;5.52;78.72
10992;BME280;5549;47.028;15.514;2023-01-25T01:13:56;97963.06;;;5.57;78.48
10992;BME280;5549;47.028;15.514;2023-01-25T01:16:29;97964.09;;;5.53;78.07
10992;BME280;5549;47.028;15.514;2023-01-25T01:19:03;97968.66;;;5.47;77.85
10992;BME280;5549;47.028;15.514;2023-01-25T01:21:31;97974.13;;;5.41;78.51
10992;BME280;5549;47.028;15.514;2023-01-25T01:24:03;97964.19;;;5.29;78.38
10992;BME280;5549;47.028;15.514;2023-01-25T01:26:32;97968.72;;;5.02;79.26
10992;BME280;5549;47.028;15.514;2023-01-25T01:29:04;97965.03;;;5.08;79.08
10992;BME280;5549;47.028;15.514;2023-01-25T01:31:39;97964.50;;;5.22;78.69
10992;BME280;5549;47.028;15.514;2023-01-25T01:34:12;97965.41;;;5.21;78.82
10992;BME280;5549;47.028;15.514;2023-01-25T01:36:49;97972.31;;;5.22;78.74
10992;BME280;5549;47.028;15.514;2023-01-25T01:39:17;97970.44;;;5.25;78.38
10992;BME280;5549;47.028;15.514;2023-01-25T01:41:49;97967.59;;;5.31;79.01
10992;BME280;5549;47.028;15.514;2023-01-25T01:47:13;97974.38;;;5.35;78.37
10992;BME280;5549;47.028;15.514;2023-01-25T01:49:52;97972.44;;;5.40;78.82
10992;BME280;5549;47.028;15.514;2023-01-25T01:52:27;97979.22;;;5.44;78.64
10992;BME280;5549;47.028;15.514;2023-01-25T01:55:06;97972.19;;;5.46;78.67
10992;BME280;5549;47.028;15.514;2023-01-25T01:57:42;97969.38;;;5.51;78.11
10992;BME280;5549;47.028;15.514;2023-01-25T02:00:18;97968.53;;;5.51;78.17
10992;BME280;5549;47.028;15.514;2023-01-25T02:02:51;97972.72;;;5.55;78.03
10992;BME280;5549;47.028;15.514;2023-01-25T02:05:26;97965.59;;;5.58;77.23
10992;BME280;5549;47.028;15.514;2023-01-25T02:08:03;97965.66;;;5.57;76.96
10992;BME280;5549;47.028;15.514;2023-01-25T02:10:35;97965.53;;;5.60;77.52
10992;BME280;5549;47.028;15.514;2023-01-25T02:13:04;97962.69;;;5.66;77.80
10992;BME280;5549;47.028;15.514;2023-01-25T02:15:40;97962.56;;;5.69;76.78
10992;BME280;5549;47.028;15.514;2023-01-25T02:18:14;97952.25;;;5.66;76.79
10992;BME280;5549;47.028;15.514;2023-01-25T02:20:44;97950.69;;;5.62;76.64
10992;BME280;5549;47.028;15.514;2023-01-25T02:23:20;97949.38;;;5.52;76.62
10992;BME280;5549;47.028;15.514;2023-01-25T02:25:51;97952.22;;;5.25;76.42
10992;BME280;5549;47.028;15.514;2023-01-25T02:28:23;97946.50;;;5.37;76.61
10992;BME280;5549;47.028;15.514;2023-01-25T02:30:54;97939.41;;;5.41;76.33
10992;BME280;5549;47.028;15.514;2023-01-25T02:33:22;97944.16;;;5.31;76.30
10992;BME280;5549;47.028;15.514;2023-01-25T02:35:57;97948.31;;;5.35;76.07
10992;BME280;5549;47.028;15.514;2023-01-25T02:38:32;97945.53;;;5.40;75.97
10992;BME280;5549;47.028;15.514;2023-01-25T02:41:07;97952.56;;;5.38;75.98
10992;BME280;5549;47.028;15.514;2023-01-25T02:43:38;97944.44;;;5.45;76.34
10992;BME280;5549;47.028;15.514;2023-01-25T02:46:10;97946.13;;;5.46;76.04
10992;BME280;5549;47.028;15.514;2023-01-25T02:48:39;97940.78;;;5.50;76.71
10992;BME280;5549;47.028;15.514;2023-01-25T02:51:08;97940.91;;;5.46;76.99
10992;BME280;5549;47.028;15.514;2023-01-25T02:53:36;97935.63;;;5.48;75.91
10992;BME280;5549;47.028;15.514;2023-01-25T02:56:08;97924.25;;;5.51;76.37
10992;BME280;5549;47.028;15.514;2023-01-25T02:58:39;97931.16;;;5.52;76.29
10992;BME280;5549;47.028;15.514;2023-01-25T03:01:07;97924.03;;;5.55;76.43
10992;BME280;5549;47.028;15.514;2023-01-25T03:03:35;97931.81;;;5.57;76.36
10992;BME280;5549;47.028;15.514;2023-01-25T03:06:06;97917.72;;;5.61;75.77
10992;BME280;5549;47.028;15.514;2023-01-25T03:08:41;97922.28;;;5.56;76.69
10992;BME280;5549;47.028;15.514;2023-01-25T03:11:13;97919.28;;;5.44;76.24
10992;BME280;5549;47.028;15.514;2023-01-25T03:13:41;97912.84;;;5.33;76.36
10992;BME280;5549;47.028;15.514;2023-01-25T03:16:12;97911.97;;;5.32;76.92
10992;BME280;5549;47.028;15.514;2023-01-25T03:18:40;97908.47;;;5.33;76.64
10992;BME280;5549;47.028;15.514;2023-01-25T03:21:12;97912.59;;;5.17;77.56
10992;BME280;5549;47.028;15.514;2023-01-25T03:23:41;97913.22;;;5.02;77.79
10992;BME280;5549;47.028;15.514;2023-01-25T03:26:13;97910.22;;;5.11;77.66
10992;BME280;5549;47.028;15.514;2023-01-25T03:28:44;97906.06;;;5.07;77.86
10992;BME280;5549;47.028;15.514;2023-01-25T03:31:15;97907.88;;;5.05;77.62
10992;BME280;5549;47.028;15.514;2023-01-25T03:33:43;97899.63;;;5.15;77.52
10992;BME280;5549;47.028;15.514;2023-01-25T03:36:12;97902.16;;;5.17;77.17
10992;BME280;5549;47.028;15.514;2023-01-25T03:38:39;97902.06;;;5.20;77.25
10992;BME280;5549;47.028;15.514;2023-01-25T03:41:08;97903.69;;;5.23;77.27
10992;BME280;5549;47.028;15.514;2023-01-25T03:43:39;97899.28;;;5.25;77.34
10992;BME280;5549;47.028;15.514;2023-01-25T03:46:09;97896.63;;;5.26;77.66
10992;BME280;5549;47.028;15.514;2023-01-25T03:48:36;97901.50;;;5.34;77.59
10992;BME280;5549;47.028;15.514;2023-01-25T03:51:04;97896.22;;;5.35;77.42
10992;BME280;5549;47.028;15.514;2023-01-25T03:53:34;97896.88;;;5.40;76.91
10992;BME280;5549;47.028;15.514;2023-01-25T03:56:04;97896.09;;;5.38;77.01
10992;BME280;5549;47.028;15.514;2023-01-25T03:58:34;97895.19;;;5.39;77.10
10992;BME280;5549;47.028;15.514;2023-01-25T04:01:05;97895.97;;;5.41;76.92
10992;BME280;5549;47.028;15.514;2023-01-25T04:03:34;97890.81;;;5.40;76.70
10992;BME280;5549;47.028;15.514;2023-01-25T04:06:02;97886.66;;;5.36;77.24
10992;BME280;5549;47.028;15.514;2023-01-25T04:08:30;97881.47;;;5.14;78.32
10992;BME280;5549;47.028;15.514;2023-01-25T04:11:04;97886.44;;;5.20;77.58
10992;BME280;5549;47.028;15.514;2023-01-25T04:13:33;97882.81;;;5.24;77.74
10992;BME280;5549;47.028;15.514;2023-01-25T04:16:03;97878.44;;;5.25;78.08
10992;BME280;5549;47.028;15.514;2023-01-25T04:18:32;97881.75;;;5.28;78.19
10992;BME280;5549;47.028;15.514;2023-01-25T04:21:00;97871.47;;;5.25;77.67
10992;BME280;5549;47.028;15.514;2023-01-25T04:23:27;97874.22;;;5.22;78.19
10992;BME280;5549;47.028;15.514;2023-01-25T04:25:59;97875.28;;;5.16;77.88
10992;BME280;5549;47.028;15.514;2023-01-25T04:28:32;97870.19;;;5.13;78.53
10992;BME280;5549;47.028;15.514;2023-01-25T04:31:01;97874.03;;;5.05;78.33
10992;BME280;5549;47.028;15.514;2023-01-25T04:33:32;97862.72;;;5.06;78.77
10992;BME280;5549;47.028;15.514;2023-01-25T04:36:00;97866.81;;;5.11;77.69
10992;BME280;5549;47.028;15.514;2023-01-25T04:38:28;97872.22;;;5.07;78.16
10992;BME280;5549;47.028;15.514;2023-01-25T04:40:55;97871.94;;;4.93;79.33
10992;BME280;5549;47.028;15.514;2023-01-25T04:43:23;97866.22;;;5.05;78.42
10992;BME280;5549;47.028;15.514;2023-01-25T04:45:53;97870.44;;;5.07;78.14
10992;BME280;5549;47.028;15.514;2023-01-25T04:48:21;97867.66;;;5.12;78.44
10992;BME280;5549;47.028;15.514;2023-01-25T04:50:50;97870.13;;;5.15;78.06
10992;BME280;5549;47.028;15.514;2023-01-25T04:53:19;97874.31;;;5.19;78.29
10992;BME280;5549;47.028;15.514;2023-01-25T04:55:47;97870.81;;;5.20;78.04
10992;BME280;5549;47.028;15.514;2023-01-25T04:58:15;97877.16;;;5.13;78.27
10992;BME280;5549;47.028;15.514;2023-01-25T05:00:43;97875.34;;;5.15;78.21
10992;BME280;5549;47.028;15.514;2023-01-25T05:03:11;97876.97;;;5.18;78.14
10992;BME280;5549;47.028;15.514;2023-01-25T05:05:38;97869.47;;;5.10;77.55
10992;BME280;5549;47.028;15.514;2023-01-25T05:08:10;97872.03;;;5.11;78.01
10992;BME280;5549;47.028;15.514;2023-01-25T05:10:38;97866.81;;;5.11;77.61
10992;BME280;5549;47.028;15.514;2023-01-25T05:13:05;97871.91;;;5.14;77.53
10992;BME280;5549;47.028;15.514;2023-01-25T05:15:33;97869.22;;;5.16;77.43
10992;BME280;5549;47.028;15.514;2023-01-25T05:18:01;97868.22;;;5.20;77.14
10992;BME280;5549;47.028;15.514;2023-01-25T05:20:30;97869.00;;;5.22;77.53
10992;BME280;5549;47.028;15.514;2023-01-25T05:23:01;97874.56;;;5.13;77.55
10992;BME280;5549;47.028;15.514;2023-01-25T05:25:30;97872.75;;;5.15;76.94
10992;BME280;5549;47.028;15.514;2023-01-25T05:28:17;97870.91;;;5.17;77.00
10992;BME280;5549;47.028;15.514;2023-01-25T05:30:45;97869.91;;;5.21;76.70
10992;BME280;5549;47.028;15.514;2023-01-25T05:33:12;97872.38;;;5.24;77.31
10992;BME280;5549;47.028;15.514;2023-01-25T05:35:42;97865.34;;;5.26;76.88
10992;BME280;5549;47.028;15.514;2023-01-25T05:38:10;97865.63;;;5.20;77.15
10992;BME280;5549;47.028;15.514;2023-01-25T05:40:41;97864.94;;;5.15;77.29
10992;BME280;5549;47.028;15.514;2023-01-25T05:43:09;97880.34;;;5.21;76.46
10992;BME280;5549;47.028;15.514;2023-01-25T05:45:36;97876.03;;;5.20;76.78
10992;BME280;5549;47.028;15.514;2023-01-25T05:48:05;97883.84;;;5.20;77.23
10992;BME280;5549;47.028;15.514;2023-01-25T05:50:33;97883.78;;;5.22;76.81
10992;BME280;5549;47.028;15.514;2023-01-25T05:53:00;97881.13;;;5.23;76.23
10992;BME280;5549;47.028;15.514;2023-01-25T05:55:27;97882.69;;;5.27;76.13
10992;BME280;5549;47.028;15.514;2023-01-25T05:57:56;97880.84;;;5.29;76.38
10992;BME280;5549;47.028;15.514;2023-01-25T06:00:24;97886.19;;;5.26;76.35
10992;BME280;5549;47.028;15.514;2023-01-25T06:02:54;97888.66;;;5.29;76.37
10992;BME280;5549;47.028;15.514;2023-01-25T06:05:24;97887.81;;;5.29;76.48
10992;BME280;5549;47.028;15.514;2023-01-25T06:07:51;97891.41;;;5.26;76.43
10992;BME280;5549;47.028;15.514;2023-01-25T06:10:19;97893.94;;;5.28;75.89
10992;BME280;5549;47.028;15.514;2023-01-25T06:12:48;97898.25;;;5.29;76.43
10992;BME280;5549;47.028;15.514;2023-01-25T06:15:19;97906.06;;;5.29;76.61
10992;BME280;5549;47.028;15.514;2023-01-25T06:17:47;97910.22;;;5.33;75.36
10992;BME280;5549;47.028;15.514;2023-01-25T06:20:16;97905.94;;;5.32;75.85
10992;BME280;5549;47.028;15.514;2023-01-25T06:22:49;97910.88;;;5.16;76.24
10992;BME280;5549;47.028;15.514;2023-01-25T06:25:16;97917.38;;;5.06;76.50
10992;BME280;5549;47.028;15.514;2023-01-25T06:27:44;97917.25;;;5.09;76.91
10992;BME280;5549;47.028;15.514;2023-01-25T06:30:12;97916.47;;;5.07;77.13
10992;BME280;5549;47.028;15.514;2023-01-25T06:32:43;97918.16;;;5.08;77.18
10992;BME280;5549;47.028;15.514;2023-01-25T06:35:14;97911.94;;;5.12;77.62
10992;BME280;5549;47.028;15.514;2023-01-25T06:37:41;97911.88;;;5.13;77.48
10992;BME280;5549;47.028;15.514;2023-01-25T06:40:10;97912.59;;;5.17;76.99
10992;BME280;5549;47.028;15.514;2023-01-25T06:42:40;97910.88;;;5.16;77.00
10992;BME280;5549;47.028;15.514;2023-01-25T06:45:09;97918.56;;;5.19;76.64
10992;BME280;5549;47.028;15.514;2023-01-25T06:47:37;97921.19;;;5.19;77.12
10992;BME280;5549;47.028;15.514;2023-01-25T06:50:08;97920.34;;;5.19;76.81
10992;BME280;5549;47.028;15.514;2023-01-25T06:52:36;97919.41;;;5.21;76.65
10992;BME280;5549;47.028;15.514;2023-01-25T06:55:08;97925.25;;;5.26;76.62
10992;BME280;5549;47.028;15.514;2023-01-25T06:57:39;97923.69;;;5.22;76.21
10992;BME280;5549;47.028;15.514;2023-01-25T07:00:08;97920.13;;;5.25;76.74
10992;BME280;5549;47.028;15.514;2023-01-25T07:02:36;97903.56;;;5.26;76.66
10992;BME280;5549;47.028;15.514;2023-01-25T07:05:08;97909.69;;;5.25;76.58
10992;BME280;5549;47.028;15.514;2023-01-25T07:07:38;97907.16;;;5.23;76.41
10992;BME280;5549;47.028;15.514;2023-01-25T07:10:07;97899.09;;;5.29;76.86
10992;BME280;5549;47.028;15.514;2023-01-25T07:12:34;97909.50;;;5.70;84.11
10992;BME280;5549;47.028;15.514;2023-01-25T07:15:02;97902.09;;;6.20;87.10
10992;BME280;5549;47.028;15.514;2023-01-25T07:17:30;97894.19;;;6.59;84.78
10992;BME280;5549;47.028;15.514;2023-01-25T07:19:57;97889.22;;;6.91;82.41
10992;BME280;5549;47.028;15.514;2023-01-25T07:22:26;97873.06;;;7.19;79.20
10992;BME280;5549;47.028;15.514;2023-01-25T07:24:54;97875.38;;;7.42;77.21
10992;BME280;5549;47.028;15.514;2023-01-25T07:27:23;97871.00;;;7.60;75.77
10992;BME280;5549;47.028;15.514;2023-01-25T07:29:50;97869.91;;;7.64;72.93
10992;BME280;5549;47.028;15.514;2023-01-25T07:32:18;97867.19;;;7.83;72.29
10992;BME280;5549;47.028;15.514;2023-01-25T07:34:45;97873.22;;;8.00;71.02
10992;BME280;5549;47.028;15.514;2023-01-25T07:37:16;97868.63;;;8.21;69.91
10992;BME280;5549;47.028;15.514;2023-01-25T07:39:45;97864.19;;;8.39;69.85
10992;BME280;5549;47.028;15.514;2023-01-25T07:42:14;97862.09;;;8.46;68.66
10992;BME280;5549;47.028;15.514;2023-01-25T07:44:42;97856.09;;;8.59;68.13
10992;BME280;5549;47.028;15.514;2023-01-25T07:47:09;97853.72;;;8.86;66.73
10992;BME280;5549;47.028;15.514;2023-01-25T07:49:37;97855.16;;;8.92;65.96
10992;BME280;5549;47.028;15.514;2023-01-25T07:52:06;97854.22;;;8.93;65.90
10992;BME280;5549;47.028;15.514;2023-01-25T07:54:36;97855.28;;;9.05;65.63
10992;BME280;5549;47.028;15.514;2023-01-25T07:57:05;97852.63;;;9.20;65.61
10992;BME280;5549;47.028;15.514;2023-01-25T07:59:33;97854.91;;;9.26;63.98
10992;BME280;5549;47.028;15.514;2023-01-25T08:02:00;97852.09;;;9.29;64.99
10992;BME280;5549;47.028;15.514;2023-01-25T08:04:28;97849.16;;;8.90;63.77
10992;BME280;5549;47.028;15.514;2023-01-25T08:06:55;97857.63;;;8.79;64.09
10992;BME280;5549;47.028;15.514;2023-01-25T08:09:23;97863.84;;;8.92;64.08
10992;BME280;5549;47.028;15.514;2023-01-25T08:11:50;97861.28;;;9.07;64.11
10992;BME280;5549;47.028;15.514;2023-01-25T08:14:20;97863.47;;;9.14;63.31
10992;BME280;5549;47.028;15.514;2023-01-25T08:16:49;97857.22;;;9.17;63.26
10992;BME280;5549;47.028;15.514;2023-01-25T08:19:17;97860.81;;;9.00;62.02
10992;BME280;5549;47.028;15.514;2023-01-25T08:21:45;97863.19;;;8.89;62.41
10992;BME280;5549;47.028;15.514;2023-01-25T08:24:13;97861.66;;;9.00;61.74
10992;BME280;5549;47.028;15.514;2023-01-25T08:26:40;97864.00;;;9.05;61.28
10992;BME280;5549;47.028;15.514;2023-01-25T08:29:09;97861.81;;;8.97;61.27
10992;BME280;5549;47.028;15.514;2023-01-25T08:31:40;97861.06;;;8.95;60.65
10992;BME280;5549;47.028;15.514;2023-01-25T08:34:09;97863.69;;;8.95;61.12
10992;BME280;5549;47.028;15.514;2023-01-25T08:36:37;97878.56;;;8.95;61.47
10992;BME280;5549;47.028;15.514;2023-01-25T08:39:06;97870.75;;;9.09;61.57
10992;BME280;5549;47.028;15.514;2023-01-25T08:41:35;97875.81;;;9.12;61.55
10992;BME280;5549;47.028;15.514;2023-01-25T08:44:03;97869.88;;;9.24;62.08
10992;BME280;5549;47.028;15.514;2023-01-25T08:46:33;97871.03;;;9.35;62.10
10992;BME280;5549;47.028;15.514;2023-01-25T08:49:03;97866.00;;;9.46;61.19
10992;BME280;5549;47.028;15.514;2023-01-25T08:51:32;97864.72;;;9.53;61.31
10992;BME280;5549;47.028;15.514;2023-01-25T08:54:03;97859.84;;;9.61;60.92
10992;BME280;5549;47.028;15.514;2023-01-25T08:56:31;97859.09;;;9.59;60.49
10992;BME280;5549;47.028;15.514;2023-01-25T08:58:58;97863.50;;;9.58;60.64
10992;BME280;5549;47.028;15.514;2023-01-25T09:01:26;97864.25;;;9.60;59.88
10992;BME280;5549;47.028;15.514;2023-01-25T09:03:54;97861.53;;;9.62;59.98
10992;BME280;5549;47.028;15.514;2023-01-25T09:06:23;97855.53;;;9.60;60.90
10992;BME280;5549;47.028;15.514;2023-01-25T09:08:50;97858.53;;;9.54;60.31
10992;BME280;5549;47.028;15.514;2023-01-25T09:11:20;97852.72;;;9.63;61.36
10992;BME280;5549;47.028;15.514;2023-01-25T09:13:48;97849.47;;;9.74;61.53
10992;BME280;5549;47.028;15.514;2023-01-25T09:16:18;97841.88;;;9.83;61.95
10992;BME280;5549;47.028;15.514;2023-01-25T09:18:47;97850.13;;;9.91;61.48
10992;BME280;5549;47.028;15.514;2023-01-25T09:21:17;97856.88;;;9.81;61.08
10992;BME280;5549;47.028;15.514;2023-01-25T09:23:50;97850.81;;;9.37;60.60
10992;BME280;5549;47.028;15.514;2023-01-25T09:26:21;97845.06;;;9.00;59.98
10992;BME280;5549;47.028;15.514;2023-01-25T09:28:51;97850.19;;;8.72;61.19
10992;BME280;5549;47.028;15.514;2023-01-25T09:31:19;97853.97;;;8.50;61.33
10992;BME280;5549;47.028;15.514;2023-01-25T09:33:48;97845.41;;;8.31;62.20
10992;BME280;5549;47.028;15.514;2023-01-25T09:36:16;97853.97;;;8.01;62.33
10992;BME280;5549;47.028;15.514;2023-01-25T09:38:44;97840.94;;;7.84;63.48
10992;BME280;5549;47.028;15.514;2023-01-25T09:41:41;97848.50;;;7.73;64.33
10992;BME280;5549;47.028;15.514;2023-01-25T09:44:30;97835.78;;;7.50;65.71
10992;BME280;5549;47.028;15.514;2023-01-25T09:47:09;97834.88;;;7.33;65.68
10992;BME280;5549;47.028;15.514;2023-01-25T09:55:41;97837.84;;;6.91;67.36
10992;BME280;5549;47.028;15.514;2023-01-25T09:58:19;97838.69;;;6.92;66.70
10992;BME280;5549;47.028;15.514;2023-01-25T10:00:53;97831.22;;;6.84;67.51
10992;BME280;5549;47.028;15.514;2023-01-25T10:03:33;97829.91;;;6.75;68.28
10992;BME280;5549;47.028;15.514;2023-01-25T10:06:05;97829.59;;;6.82;68.57
10992;BME280;5549;47.028;15.514;2023-01-25T10:08:45;97824.38;;;6.82;69.03
10992;BME280;5549;47.028;15.514;2023-01-25T10:11:23;97812.41;;;6.78;68.72
10992;BME280;5549;47.028;15.514;2023-01-25T10:13:53;97816.69;;;6.79;69.32
10992;BME280;5549;47.028;15.514;2023-01-25T10:16:28;97813.31;;;6.76;69.59
10992;BME280;5549;47.028;15.514;2023-01-25T10:19:09;97809.25;;;6.71;69.12
10992;BME280;5549;47.028;15.514;2023-01-25T10:21:43;97802.09;;;6.57;70.06
10992;BME280;5549;47.028;15.514;2023-01-25T10:25:03;97802.38;;;6.51;69.74
10992;BME280;5549;47.028;15.514;2023-01-25T10:27:38;97795.63;;;6.47;70.30
10992;BME280;5549;47.028;15.514;2023-01-25T10:30:24;97788.56;;;6.49;70.34
10992;BME280;5549;47.028;15.514;2023-01-25T10:32:57;97778.41;;;6.43;70.47
10992;BME280;5549;47.028;15.514;2023-01-25T10:35:29;97778.41;;;6.43;70.15
10992;BME280;5549;47.028;15.514;2023-01-25T10:38:08;97782.78;;;6.42;70.64
10992;BME280;5549;47.028;15.514;2023-01-25T10:40:42;97774.13;;;6.42;71.47
10992;BME280;5549;47.028;15.514;2023-01-25T10:43:17;97770.28;;;6.49;71.49
10992;BME280;5549;47.028;15.514;2023-01-25T10:45:46;97765.84;;;6.51;71.32
10992;BME280;5549;47.028;15.514;2023-01-25T10:48:19;97762.53;;;6.48;71.57
10992;BME280;5549;47.028;15.514;2023-01-25T10:50:52;97773.44;;;6.20;71.89
10992;BME280;5549;47.028;15.514;2023-01-25T10:53:27;97759.81;;;6.32;71.28
10992;BME280;5549;47.028;15.514;2023-01-25T10:56:20;97761.66;;;6.30;71.42
10992;BME280;5549;47.028;15.514;2023-01-25T10:58:50;97751.56;;;6.41;71.51
10992;BME280;5549;47.028;15.514;2023-01-25T11:01:31;97748.72;;;6.46;71.66
10992;BME280;5549;47.028;15.514;2023-01-25T11:04:00;97748.94;;;6.41;72.12
10992;BME280;5549;47.028;15.514;2023-01-25T11:06:32;97742.66;;;6.45;71.58
10992;BME280;5549;47.028;15.514;2023-01-25T11:09:00;97745.88;;;6.33;71.30
10992;BME280;5549;47.028;15.514;2023-01-25T11:11:34;97734.41;;;6.18;71.23
10992;BME280;5549;47.028;15.514;2023-01-25T11:14:15;97730.66;;;6.24;70.95
10992;BME280;5549;47.028;15.514;2023-01-25T11:16:46;97733.22;;;6.06;71.40
10992;BME280;5549;47.028;15.514;2023-01-25T11:19:27;97716.69;;;6.25;71.65
10992;BME280;5549;47.028;15.514;2023-01-25T11:21:57;97720.22;;;6.24;71.24
10992;BME280;5549;47.028;15.514;2023-01-25T11:24:28;97717.59;;;6.24;72.62
10992;BME280;5549;47.028;15.514;2023-01-25T11:27:16;97715.69;;;6.27;71.99
10992;BME280;5549;47.028;15.514;2023-01-25T11:29:44;97711.91;;;6.16;72.72
10992;BME280;5549;47.028;15.514;2023-01-25T11:32:19;97704.09;;;6.16;72.25
10992;BME280;5549;47.028;15.514;2023-01-25T11:34:51;97697.00;;;6.00;72.87
10992;BME280;5549;47.028;15.514;2023-01-25T11:37:36;97690.03;;;6.01;73.38
10992;BME280;5549;47.028;15.514;2023-01-25T11:40:17;97687.84;;;5.92;73.52
10992;BME280;5549;47.028;15.514;2023-01-25T11:43:02;97691.00;;;5.79;74.15
10992;BME280;5549;47.028;15.514;2023-01-25T11:46:04;97682.66;;;5.54;74.15
10992;BME280;5549;47.028;15.514;2023-01-25T11:49:04;97682.56;;;5.56;73.96
10992;BME280;5549;47.028;15.514;2023-01-25T11:51:45;97684.59;;;5.68;73.72
10992;BME280;5549;47.028;15.514;2023-01-25T11:54:44;97669.25;;;5.43;75.01
10992;BME280;5549;47.028;15.514;2023-01-25T11:57:33;97676.16;;;5.25;74.94
10992;BME280;5549;47.028;15.514;2023-01-25T12:00:22;97665.31;;;5.34;74.96
10992;BME280;5549;47.028;15.514;2023-01-25T12:03:45;97665.53;;;5.30;75.92
10992;BME280;5549;47.028;15.514;2023-01-25T12:06:20;97658.06;;;5.22;75.35
10992;BME280;5549;47.028;15.514;2023-01-25T12:09:10;97651.19;;;5.20;75.95
10992;BME280;5549;47.028;15.514;2023-01-25T12:11:54;97655.72;;;5.16;75.79
10992;BME280;5549;47.028;15.514;2023-01-25T12:14:36;97656.06;;;5.08;75.69
10992;BME280;5549;47.028;15.514;2023-01-25T12:17:21;97649.50;;;5.00;76.50
10992;BME280;5549;47.028;15.514;2023-01-25T12:20:07;97646.13;;;4.98;76.86
10992;BME280;5549;47.028;15.514;2023-01-25T12:23:03;97645.09;;;4.81;78.24
10992;BME280;5549;47.028;15.514;2023-01-25T12:25:46;97633.91;;;4.79;78.57
10992;BME280;5549;47.028;15.514;2023-01-25T12:28:22;97627.19;;;4.55;79.62
10992;BME280;5549;47.028;15.514;2023-01-25T12:30:57;97629.13;;;4.50;79.45
10992;BME280;5549;47.028;15.514;2023-01-25T12:33:32;97621.31;;;4.09;80.59
10992;BME280;5549;47.028;15.514;2023-01-25T12:36:07;97619.25;;;4.38;79.45
10992;BME280;5549;47.028;15.514;2023-01-25T12:38:43;97609.75;;;4.57;78.72
10992;BME280;5549;47.028;15.514;2023-01-25T12:41:37;97607.66;;;4.65;78.46
10992;BME280;5549;47.028;15.514;2023-01-25T12:44:14;97603.97;;;4.90;78.14
10992;BME280;5549;47.028;15.514;2023-01-25T12:46:54;97594.03;;;4.79;77.82
10992;BME280;5549;47.028;15.514;2023-01-25T12:49:29;97597.09;;;5.07;76.80
10992;BME280;5549;47.028;15.514;2023-01-25T12:52:06;97592.22;;;5.00;76.71
10992;BME280;5549;47.028;15.514;2023-01-25T12:54:41;97595.19;;;4.92;77.15
10992;BME280;5549;47.028;15.514;2023-01-25T12:57:19;97593.19;;;4.78;77.36
10992;BME280;5549;47.028;15.514;2023-01-25T12:59:56;97595.28;;;4.70;77.74
10992;BME280;5549;47.028;15.514;2023-01-25T13:05:44;97579.53;;;4.73;77.99
10992;BME280;5549;47.028;15.514;2023-01-25T13:08:33;97577.53;;;4.99;76.39
10992;BME280;5549;47.028;15.514;2023-01-25T13:11:13;97576.75;;;4.97;76.82
10992;BME280;5549;47.028;15.514;2023-01-25T13:13:45;97576.69;;;4.59;78.80
10992;BME280;5549;47.028;15.514;2023-01-25T13:16:33;97584.44;;;4.61;78.85
10992;BME280;5549;47.028;15.514;2023-01-25T13:19:02;97577.25;;;4.47;79.27
10992;BME280;5549;47.028;15.514;2023-01-25T13:21:42;97574.25;;;4.15;80.69
10992;BME280;5549;47.028;15.514;2023-01-25T13:24:16;97576.41;;;4.06;81.28
10992;BME280;5549;47.028;15.514;2023-01-25T13:27:02;97565.94;;;4.07;81.07
10992;BME280;5549;47.028;15.514;2023-01-25T13:29:45;97568.59;;;4.06;80.81
10992;BME280;5549;47.028;15.514;2023-01-25T13:33:05;97576.84;;;3.75;81.47
10992;BME280;5549;47.028;15.514;2023-01-25T13:35:42;97567.50;;;3.91;80.71
10992;BME280;5549;47.028;15.514;2023-01-25T13:38:32;97567.56;;;4.10;80.16
10992;BME280;5549;47.028;15.514;2023-01-25T13:41:07;97573.88;;;4.25;79.82
10992;BME280;5549;47.028;15.514;2023-01-25T13:43:39;97570.38;;;4.05;80.58
10992;BME280;5549;47.028;15.514;2023-01-25T13:46:16;97563.47;;;4.04;79.50
10992;BME280;5549;47.028;15.514;2023-01-25T13:48:57;97560.34;;;3.96;80.17
10992;BME280;5549;47.028;15.514;2023-01-25T13:51:29;97554.06;;;4.02;80.09